TimeCST,TemperatureF,Dew PointF,Humidity,Sea Level PressureIn,VisibilityMPH,Wind Direction,Wind SpeedMPH,Gust SpeedMPH,PrecipitationIn,Events,Conditions,WindDirDegrees,DateUTC
12:32 AM,71.6,64.4,78,29.86,10.0,South,18.4,25.3,N/A,,Overcast,180,2012-11-11 06:32:00
12:51 AM,72.0,64.0,76,29.84,10.0,South,19.6,-,N/A,,Overcast,170,2012-11-11 06:51:00
1:19 AM,71.6,62.6,73,29.86,10.0,South,17.3,24.2,N/A,,Mostly Cloudy,170,2012-11-11 07:19:00
1:51 AM,71.1,63.0,75,29.83,10.0,South,16.1,24.2,N/A,,Overcast,170,2012-11-11 07:51:00
1:58 AM,71.6,62.6,73,29.85,10.0,South,17.3,-,N/A,,Overcast,180,2012-11-11 07:58:00
2:51 AM,69.8,62.6,78,29.83,10.0,South,13.8,23.0,N/A,,Partly Cloudy,170,2012-11-11 08:51:00
3:51 AM,70.0,63.0,78,29.80,10.0,South,18.4,25.3,N/A,,Clear,170,2012-11-11 09:51:00
4:51 AM,70.0,63.0,78,29.81,10.0,South,20.7,25.3,N/A,,Mostly Cloudy,180,2012-11-11 10:51:00
5:51 AM,71.6,64.4,78,29.84,10.0,South,17.3,-,N/A,,Overcast,180,2012-11-11 11:51:00
6:51 AM,72.0,64.0,76,29.83,10.0,South,17.3,29.9,N/A,,Overcast,180,2012-11-11 12:51:00
7:51 AM,72.0,64.0,76,29.86,10.0,South,20.7,31.1,N/A,,Mostly Cloudy,180,2012-11-11 13:51:00
8:51 AM,73.0,64.0,73,29.88,10.0,South,18.4,-,N/A,,Mostly Cloudy,190,2012-11-11 14:51:00
8:58 AM,73.4,64.4,73,29.90,10.0,South,16.1,26.5,N/A,,Scattered Clouds,190,2012-11-11 14:58:00
9:11 AM,73.4,64.4,73,29.91,10.0,South,13.8,24.2,N/A,,Mostly Cloudy,190,2012-11-11 15:11:00
9:51 AM,75.9,63.0,64,29.92,10.0,SSW,16.1,-,N/A,,Scattered Clouds,210,2012-11-11 15:51:00
10:51 AM,78.1,62.1,58,29.91,10.0,SSW,16.1,21.9,N/A,,Scattered Clouds,200,2012-11-11 16:51:00
11:51 AM,79.0,57.9,48,29.89,10.0,SSW,20.7,26.5,N/A,,Overcast,210,2012-11-11 17:51:00
12:51 PM,78.1,57.9,50,29.87,10.0,SW,17.3,-,N/A,,Overcast,220,2012-11-11 18:51:00
1:19 PM,68.0,51.8,56,29.91,10.0,NNW,23.0,34.5,0.00,,Overcast,330,2012-11-11 19:19:00
1:26 PM,66.2,50.0,56,29.91,10.0,NNW,18.4,34.5,0.00,,Overcast,330,2012-11-11 19:26:00
1:51 PM,64.0,50.0,60,29.91,10.0,NNW,15.0,-,0.00,,Overcast,340,2012-11-11 19:51:00
2:51 PM,66.0,48.9,54,29.92,10.0,NNW,16.1,23.0,0.00,,Overcast,340,2012-11-11 20:51:00
3:51 PM,68.0,48.0,49,29.94,10.0,North,11.5,-,N/A,,Overcast,350,2012-11-11 21:51:00
4:51 PM,68.0,48.9,50,29.97,10.0,NNW,9.2,-,N/A,,Overcast,340,2012-11-11 22:51:00
5:51 PM,64.4,48.2,56,30.00,10.0,North,3.5,-,N/A,,Mostly Cloudy,360,2012-11-11 23:51:00
6:51 PM,63.0,50.0,63,30.04,10.0,NW,3.5,-,N/A,,Mostly Cloudy,310,2012-11-12 00:51:00
7:51 PM,64.9,48.9,56,30.07,10.0,NNW,4.6,-,N/A,,Overcast,330,2012-11-12 01:51:00
8:51 PM,64.4,39.2,40,30.11,10.0,NW,8.1,-,N/A,,Overcast,320,2012-11-12 02:51:00
9:51 PM,63.0,44.1,50,30.15,10.0,North,15.0,24.2,N/A,,Overcast,360,2012-11-12 03:51:00
10:51 PM,57.2,46.4,67,30.22,10.0,North,18.4,24.2,N/A,,Overcast,10,2012-11-12 04:51:00
11:51 PM,53.1,39.9,61,30.24,10.0,North,16.1,24.2,N/A,,Mostly Cloudy,360,2012-11-12 05:51:00